sensor_id;sensor_type;location;lat;lon;timestamp;pressure;altitude;pressure_sealevel;temperature;humidity
58385;BME280;44185;47.844;8.966;2023-02-19T00:00:00;96807.59;;;8.52;98.91
58385;BME280;44185;47.844;8.966;2023-02-19T00:02:26;96813.31;;;8.46;98.79
58385;BME280;44185;47.844;8.966;2023-02-19T00:04:51;96809.31;;;8.40;99.57
58385;BME280;44185;47.844;8.966;2023-02-19T00:07:17;96816.56;;;8.37;99.44
58385;BME280;44185;47.844;8.966;2023-02-19T00:09:43;96810.69;;;8.33;99.68
58385;BME280;44185;47.844;8.966;2023-02-19T00:12:09;96798.84;;;8.39;99.76
58385;BME280;44185;47.844;8.966;2023-02-19T00:14:35;96806.66;;;8.40;99.48
58385;BME280;44185;47.844;8.966;2023-02-19T00:17:00;96800.84;;;8.35;100.00
58385;BME280;44185;47.844;8.966;2023-02-19T00:19:27;96797.38;;;8.34;99.95
58385;BME280;44185;47.844;8.966;2023-02-19T00:21:52;96799.47;;;8.29;100.00
58385;BME280;44185;47.844;8.966;2023-02-19T00:24:18;96801.47;;;8.26;100.00
58385;BME280;44185;47.844;8.966;2023-02-19T00:26:44;96800.00;;;8.21;100.00
58385;BME280;44185;47.844;8.966;2023-02-19T00:29:14;96801.56;;;8.11;100.00
58385;BME280;44185;47.844;8.966;2023-02-19T00:31:40;96799.63;;;8.00;100.00
58385;BME280;44185;47.844;8.966;2023-02-19T00:34:05;96797.13;;;7.98;100.00
58385;BME280;44185;47.844;8.966;2023-02-19T00:36:32;96800.28;;;8.04;100.00
58385;BME280;44185;47.844;8.966;2023-02-19T00:38:58;96792.78;;;7.97;100.00
58385;BME280;44185;47.844;8.966;2023-02-19T00:41:23;96791.72;;;7.87;100.00
58385;BME280;44185;47.844;8.966;2023-02-19T00:43:50;96789.78;;;7.76;100.00
58385;BME280;44185;47.844;8.966;2023-02-19T00:46:19;96789.16;;;7.72;100.00
58385;BME280;44185;47.844;8.966;2023-02-19T00:48:45;96788.03;;;7.62;100.00
58385;BME280;44185;47.844;8.966;2023-02-19T00:51:11;96791.81;;;7.57;100.00
58385;BME280;44185;47.844;8.966;2023-02-19T00:53:36;96794.75;;;7.53;100.00
58385;BME280;44185;47.844;8.966;2023-02-19T00:56:02;96792.53;;;7.47;100.00
58385;BME280;44185;47.844;8.966;2023-02-19T00:58:28;96793.66;;;7.42;100.00
58385;BME280;44185;47.844;8.966;2023-02-19T01:00:53;96791.03;;;7.42;100.00
58385;BME280;44185;47.844;8.966;2023-02-19T01:03:20;96790.19;;;7.42;100.00
58385;BME280;44185;47.844;8.966;2023-02-19T01:05:45;96794.66;;;7.54;100.00
58385;BME280;44185;47.844;8.966;2023-02-19T01:08:11;96794.09;;;7.49;100.00
58385;BME280;44185;47.844;8.966;2023-02-19T01:10:36;96789.03;;;7.46;100.00
58385;BME280;44185;47.844;8.966;2023-02-19T01:13:02;96797.78;;;7.47;100.00
58385;BME280;44185;47.844;8.966;2023-02-19T01:15:27;96789.16;;;7.44;100.00
58385;BME280;44185;47.844;8.966;2023-02-19T01:17:53;96791.47;;;7.49;100.00
58385;BME280;44185;47.844;8.966;2023-02-19T01:20:20;96790.75;;;7.47;100.00
58385;BME280;44185;47.844;8.966;2023-02-19T01:22:45;96787.44;;;7.43;100.00
58385;BME280;44185;47.844;8.966;2023-02-19T01:25:10;96784.19;;;7.40;100.00
58385;BME280;44185;47.844;8.966;2023-02-19T01:27:36;96786.16;;;7.36;100.00
58385;BME280;44185;47.844;8.966;2023-02-19T01:30:01;96787.66;;;7.40;100.00
58385;BME280;44185;47.844;8.966;2023-02-19T01:32:27;96774.19;;;7.45;100.00
58385;BME280;44185;47.844;8.966;2023-02-19T01:34:53;96764.16;;;7.37;100.00
58385;BME280;44185;47.844;8.966;2023-02-19T01:37:20;96756.47;;;7.34;100.00
58385;BME280;44185;47.844;8.966;2023-02-19T01:39:46;96741.69;;;7.31;100.00
58385;BME280;44185;47.844;8.966;2023-02-19T01:42:13;96738.00;;;7.06;100.00
58385;BME280;44185;47.844;8.966;2023-02-19T01:45:14;96746.66;;;7.08;100.00
58385;BME280;44185;47.844;8.966;2023-02-19T01:47:43;96737.81;;;7.09;100.00
58385;BME280;44185;47.844;8.966;2023-02-19T01:50:09;96736.41;;;7.04;100.00
58385;BME280;44185;47.844;8.966;2023-02-19T01:52:36;96734.13;;;7.12;100.00
58385;BME280;44185;47.844;8.966;2023-02-19T01:55:04;96733.28;;;7.11;100.00
58385;BME280;44185;47.844;8.966;2023-02-19T01:57:35;96727.19;;;7.11;100.00
58385;BME280;44185;47.844;8.966;2023-02-19T02:00:04;96729.72;;;7.12;100.00
58385;BME280;44185;47.844;8.966;2023-02-19T02:02:30;96735.72;;;7.15;100.00
58385;BME280;44185;47.844;8.966;2023-02-19T02:04:56;96731.56;;;7.25;100.00
58385;BME280;44185;47.844;8.966;2023-02-19T02:07:23;96733.34;;;7.52;100.00
58385;BME280;44185;47.844;8.966;2023-02-19T02:09:50;96732.88;;;7.73;100.00
58385;BME280;44185;47.844;8.966;2023-02-19T02:12:16;96731.72;;;7.77;100.00
58385;BME280;44185;47.844;8.966;2023-02-19T02:14:43;96729.13;;;7.90;100.00
58385;BME280;44185;47.844;8.966;2023-02-19T02:17:19;96710.34;;;7.95;99.73
58385;BME280;44185;47.844;8.966;2023-02-19T02:20:05;96702.13;;;8.00;99.38
58385;BME280;44185;47.844;8.966;2023-02-19T02:22:36;96705.81;;;8.10;98.22
58385;BME280;44185;47.844;8.966;2023-02-19T02:25:29;96702.31;;;8.10;98.05
58385;BME280;44185;47.844;8.966;2023-02-19T02:28:10;96701.19;;;8.14;97.75
58385;BME280;44185;47.844;8.966;2023-02-19T02:30:43;96694.94;;;8.15;97.36
58385;BME280;44185;47.844;8.966;2023-02-19T02:33:20;96691.69;;;8.11;98.34
58385;BME280;44185;47.844;8.966;2023-02-19T02:35:52;96680.09;;;8.14;97.25
58385;BME280;44185;47.844;8.966;2023-02-19T02:38:22;96683.59;;;8.15;97.67
58385;BME280;44185;47.844;8.966;2023-02-19T02:40:50;96682.81;;;8.12;97.71
58385;BME280;44185;47.844;8.966;2023-02-19T02:43:16;96705.59;;;8.14;98.08
58385;BME280;44185;47.844;8.966;2023-02-19T02:45:43;96722.47;;;8.11;98.65
58385;BME280;44185;47.844;8.966;2023-02-19T02:48:17;96720.91;;;8.08;98.30
58385;BME280;44185;47.844;8.966;2023-02-19T02:50:46;96722.38;;;8.12;98.01
58385;BME280;44185;47.844;8.966;2023-02-19T02:53:18;96727.56;;;8.14;98.59
58385;BME280;44185;47.844;8.966;2023-02-19T02:55:48;96729.44;;;8.12;97.87
58385;BME280;44185;47.844;8.966;2023-02-19T02:58:16;96726.81;;;8.12;98.00
58385;BME280;44185;47.844;8.966;2023-02-19T03:00:47;96720.56;;;8.13;98.15
58385;BME280;44185;47.844;8.966;2023-02-19T03:03:17;96726.06;;;8.10;98.04
58385;BME280;44185;47.844;8.966;2023-02-19T03:05:47;96714.97;;;8.18;96.76
58385;BME280;44185;47.844;8.966;2023-02-19T03:08:16;96703.72;;;8.16;97.06
58385;BME280;44185;47.844;8.966;2023-02-19T03:10:47;96700.88;;;8.19;97.35
58385;BME280;44185;47.844;8.966;2023-02-19T03:13:19;96712.34;;;8.18;97.22
58385;BME280;44185;47.844;8.966;2023-02-19T03:15:51;96718.59;;;8.17;97.87
58385;BME280;44185;47.844;8.966;2023-02-19T03:18:21;96712.66;;;8.13;98.66
58385;BME280;44185;47.844;8.966;2023-02-19T03:20:50;96722.59;;;8.09;98.47
58385;BME280;44185;47.844;8.966;2023-02-19T03:23:18;96729.44;;;8.12;97.91
58385;BME280;44185;47.844;8.966;2023-02-19T03:25:46;96736.50;;;8.11;98.08
58385;BME280;44185;47.844;8.966;2023-02-19T03:28:13;96735.47;;;8.14;98.36
58385;BME280;44185;47.844;8.966;2023-02-19T03:30:45;96735.47;;;8.14;98.47
58385;BME280;44185;47.844;8.966;2023-02-19T03:33:15;96730.38;;;8.11;98.42
58385;BME280;44185;47.844;8.966;2023-02-19T03:35:44;96721.53;;;8.12;98.55
58385;BME280;44185;47.844;8.966;2023-02-19T03:38:15;96706.03;;;8.07;99.22
58385;BME280;44185;47.844;8.966;2023-02-19T03:40:52;96703.38;;;8.07;99.65
58385;BME280;44185;47.844;8.966;2023-02-19T03:43:22;96703.72;;;8.03;99.99
58385;BME280;44185;47.844;8.966;2023-02-19T03:45:54;96695.72;;;8.04;99.76
58385;BME280;44185;47.844;8.966;2023-02-19T03:48:27;96693.81;;;8.06;99.75
58385;BME280;44185;47.844;8.966;2023-02-19T03:53:48;96694.94;;;8.02;99.45
58385;BME280;44185;47.844;8.966;2023-02-19T03:56:23;96686.31;;;8.00;100.00
58385;BME280;44185;47.844;8.966;2023-02-19T03:58:55;96688.81;;;8.01;100.00
58385;BME280;44185;47.844;8.966;2023-02-19T04:01:27;96669.44;;;8.03;99.69
58385;BME280;44185;47.844;8.966;2023-02-19T04:03:58;96679.13;;;8.02;99.43
58385;BME280;44185;47.844;8.966;2023-02-19T04:06:28;96702.84;;;8.02;99.99
58385;BME280;44185;47.844;8.966;2023-02-19T04:08:56;96690.66;;;8.01;100.00
58385;BME280;44185;47.844;8.966;2023-02-19T04:11:25;96687.25;;;7.99;99.78
58385;BME280;44185;47.844;8.966;2023-02-19T04:13:57;96690.72;;;7.99;100.00
58385;BME280;44185;47.844;8.966;2023-02-19T04:16:28;96697.06;;;7.97;100.00
58385;BME280;44185;47.844;8.966;2023-02-19T04:18:57;96679.03;;;7.90;100.00
58385;BME280;44185;47.844;8.966;2023-02-19T04:21:24;96702.75;;;7.90;100.00
58385;BME280;44185;47.844;8.966;2023-02-19T04:23:50;96702.84;;;7.89;100.00
58385;BME280;44185;47.844;8.966;2023-02-19T04:26:17;96707.28;;;7.88;100.00
58385;BME280;44185;47.844;8.966;2023-02-19T04:28:45;96706.34;;;7.89;100.00
58385;BME280;44185;47.844;8.966;2023-02-19T04:31:10;96707.38;;;7.87;100.00
58385;BME280;44185;47.844;8.966;2023-02-19T04:33:36;96704.88;;;7.85;100.00
58385;BME280;44185;47.844;8.966;2023-02-19T04:36:04;96703.47;;;7.79;100.00
58385;BME280;44185;47.844;8.966;2023-02-19T04:38:30;96712.97;;;7.82;100.00
58385;BME280;44185;47.844;8.966;2023-02-19T04:40:56;96717.38;;;7.82;100.00
58385;BME280;44185;47.844;8.966;2023-02-19T04:43:21;96716.53;;;7.81;100.00
58385;BME280;44185;47.844;8.966;2023-02-19T04:45:47;96722.66;;;7.82;100.00
58385;BME280;44185;47.844;8.966;2023-02-19T04:48:12;96717.50;;;7.80;100.00
58385;BME280;44185;47.844;8.966;2023-02-19T04:50:38;96719.38;;;7.78;100.00
58385;BME280;44185;47.844;8.966;2023-02-19T04:53:05;96714.03;;;7.79;100.00
58385;BME280;44185;47.844;8.966;2023-02-19T04:55:31;96721.94;;;7.79;100.00
58385;BME280;44185;47.844;8.966;2023-02-19T04:57:57;96710.75;;;7.76;100.00
58385;BME280;44185;47.844;8.966;2023-02-19T05:00:22;96715.16;;;7.75;100.00
58385;BME280;44185;47.844;8.966;2023-02-19T05:02:47;96722.13;;;7.76;100.00
58385;BME280;44185;47.844;8.966;2023-02-19T05:05:13;96719.06;;;7.70;100.00
58385;BME280;44185;47.844;8.966;2023-02-19T05:07:38;96715.59;;;7.69;100.00
58385;BME280;44185;47.844;8.966;2023-02-19T05:10:06;96718.22;;;7.69;100.00
58385;BME280;44185;47.844;8.966;2023-02-19T05:12:31;96721.72;;;7.70;100.00
58385;BME280;44185;47.844;8.966;2023-02-19T05:14:57;96713.88;;;7.68;100.00
58385;BME280;44185;47.844;8.966;2023-02-19T05:17:22;96716.44;;;7.70;100.00
58385;BME280;44185;47.844;8.966;2023-02-19T05:19:47;96720.75;;;7.71;100.00
58385;BME280;44185;47.844;8.966;2023-02-19T05:22:13;96730.34;;;7.72;100.00
58385;BME280;44185;47.844;8.966;2023-02-19T05:24:38;96728.84;;;7.67;100.00
58385;BME280;44185;47.844;8.966;2023-02-19T05:27:05;96739.50;;;7.66;100.00
58385;BME280;44185;47.844;8.966;2023-02-19T05:29:31;96735.28;;;7.63;100.00
58385;BME280;44185;47.844;8.966;2023-02-19T05:31:57;96741.47;;;7.62;100.00
58385;BME280;44185;47.844;8.966;2023-02-19T05:34:22;96747.72;;;7.61;100.00
58385;BME280;44185;47.844;8.966;2023-02-19T05:36:48;96753.78;;;7.62;100.00
58385;BME280;44185;47.844;8.966;2023-02-19T05:39:13;96752.13;;;7.61;100.00
58385;BME280;44185;47.844;8.966;2023-02-19T05:41:39;96751.38;;;7.59;100.00
58385;BME280;44185;47.844;8.966;2023-02-19T05:44:06;96750.34;;;7.61;100.00
58385;BME280;44185;47.844;8.966;2023-02-19T05:46:32;96758.44;;;7.58;100.00
58385;BME280;44185;47.844;8.966;2023-02-19T05:48:58;96755.88;;;7.56;100.00
58385;BME280;44185;47.844;8.966;2023-02-19T05:51:24;96772.34;;;7.60;100.00
58385;BME280;44185;47.844;8.966;2023-02-19T05:53:51;96783.72;;;7.61;100.00
58385;BME280;44185;47.844;8.966;2023-02-19T05:56:23;96788.34;;;7.57;100.00
58385;BME280;44185;47.844;8.966;2023-02-19T05:58:51;96781.41;;;7.56;100.00
58385;BME280;44185;47.844;8.966;2023-02-19T06:01:20;96781.47;;;7.54;100.00
58385;BME280;44185;47.844;8.966;2023-02-19T06:03:46;96783.19;;;7.55;100.00
58385;BME280;44185;47.844;8.966;2023-02-19T06:06:12;96781.47;;;7.54;100.00
58385;BME280;44185;47.844;8.966;2023-02-19T06:08:37;96780.00;;;7.50;100.00
58385;BME280;44185;47.844;8.966;2023-02-19T06:11:03;96791.28;;;7.52;100.00
58385;BME280;44185;47.844;8.966;2023-02-19T06:13:29;96786.88;;;7.53;100.00
58385;BME280;44185;47.844;8.966;2023-02-19T06:15:54;96795.81;;;7.50;100.00
58385;BME280;44185;47.844;8.966;2023-02-19T06:18:21;96794.03;;;7.51;100.00
58385;BME280;44185;47.844;8.966;2023-02-19T06:20:47;96800.34;;;7.48;100.00
58385;BME280;44185;47.844;8.966;2023-02-19T06:23:12;96804.75;;;7.48;100.00
58385;BME280;44185;47.844;8.966;2023-02-19T06:25:38;96808.31;;;7.47;100.00
58385;BME280;44185;47.844;8.966;2023-02-19T06:28:04;96802.44;;;7.43;100.00
58385;BME280;44185;47.844;8.966;2023-02-19T06:30:29;96811.91;;;7.45;100.00
58385;BME280;44185;47.844;8.966;2023-02-19T06:32:55;96804.28;;;7.41;100.00
58385;BME280;44185;47.844;8.966;2023-02-19T06:35:22;96812.28;;;7.39;100.00
58385;BME280;44185;47.844;8.966;2023-02-19T06:37:48;96811.44;;;7.39;100.00
58385;BME280;44185;47.844;8.966;2023-02-19T06:40:13;96817.66;;;7.38;100.00
58385;BME280;44185;47.844;8.966;2023-02-19T06:42:39;96806.91;;;7.41;100.00
58385;BME280;44185;47.844;8.966;2023-02-19T06:45:05;96807.88;;;7.40;100.00
58385;BME280;44185;47.844;8.966;2023-02-19T06:47:30;96814.81;;;7.41;100.00
58385;BME280;44185;47.844;8.966;2023-02-19T06:49:56;96811.25;;;7.42;100.00
58385;BME280;44185;47.844;8.966;2023-02-19T06:52:23;96823.56;;;7.41;100.00
58385;BME280;44185;47.844;8.966;2023-02-19T06:54:48;96828.09;;;7.39;100.00
58385;BME280;44185;47.844;8.966;2023-02-19T06:57:14;96820.09;;;7.41;100.00
58385;BME280;44185;47.844;8.966;2023-02-19T06:59:39;96824.41;;;7.42;100.00
58385;BME280;44185;47.844;8.966;2023-02-19T07:02:04;96827.50;;;7.49;100.00
58385;BME280;44185;47.844;8.966;2023-02-19T07:04:30;96839.06;;;7.46;100.00
58385;BME280;44185;47.844;8.966;2023-02-19T07:06:55;96843.41;;;7.47;100.00
58385;BME280;44185;47.844;8.966;2023-02-19T07:09:22;96848.56;;;7.49;100.00
58385;BME280;44185;47.844;8.966;2023-02-19T07:11:48;96854.50;;;7.52;100.00
58385;BME280;44185;47.844;8.966;2023-02-19T07:14:14;96855.53;;;7.50;100.00
58385;BME280;44185;47.844;8.966;2023-02-19T07:16:40;96857.00;;;7.54;100.00
58385;BME280;44185;47.844;8.966;2023-02-19T07:19:06;96848.19;;;7.55;100.00
58385;BME280;44185;47.844;8.966;2023-02-19T07:21:31;96855.97;;;7.56;100.00
58385;BME280;44185;47.844;8.966;2023-02-19T07:23:57;96861.91;;;7.60;100.00
58385;BME280;44185;47.844;8.966;2023-02-19T07:26:24;96865.19;;;7.64;100.00
58385;BME280;44185;47.844;8.966;2023-02-19T07:28:50;96873.00;;;7.65;100.00
58385;BME280;44185;47.844;8.966;2023-02-19T07:31:17;96879.78;;;7.70;100.00
58385;BME280;44185;47.844;8.966;2023-02-19T07:33:43;96880.22;;;7.76;100.00
58385;BME280;44185;47.844;8.966;2023-02-19T07:36:09;96880.66;;;7.83;100.00
58385;BME280;44185;47.844;8.966;2023-02-19T07:38:34;96886.69;;;7.85;100.00
58385;BME280;44185;47.844;8.966;2023-02-19T07:41:02;96897.41;;;7.82;100.00
58385;BME280;44185;47.844;8.966;2023-02-19T07:43:31;96903.31;;;7.86;100.00
58385;BME280;44185;47.844;8.966;2023-02-19T07:45:58;96907.84;;;7.84;100.00
58385;BME280;44185;47.844;8.966;2023-02-19T07:48:26;96909.34;;;7.88;100.00
58385;BME280;44185;47.844;8.966;2023-02-19T07:50:51;96905.03;;;7.87;100.00
58385;BME280;44185;47.844;8.966;2023-02-19T07:53:17;96904.91;;;7.88;100.00
58385;BME280;44185;47.844;8.966;2023-02-19T07:55:42;96912.44;;;7.95;100.00
58385;BME280;44185;47.844;8.966;2023-02-19T07:58:08;96920.44;;;7.93;100.00
58385;BME280;44185;47.844;8.966;2023-02-19T08:00:35;96925.72;;;7.93;100.00
58385;BME280;44185;47.844;8.966;2023-02-19T08:03:00;96933.69;;;7.92;100.00
58385;BME280;44185;47.844;8.966;2023-02-19T08:05:26;96936.25;;;7.93;100.00
58385;BME280;44185;47.844;8.966;2023-02-19T08:07:52;96937.19;;;7.92;100.00
58385;BME280;44185;47.844;8.966;2023-02-19T08:10:17;96936.88;;;7.97;100.00
58385;BME280;44185;47.844;8.966;2023-02-19T08:12:43;96945.75;;;7.96;100.00
58385;BME280;44185;47.844;8.966;2023-02-19T08:15:08;96941.41;;;7.95;100.00
58385;BME280;44185;47.844;8.966;2023-02-19T08:17:35;96944.59;;;8.00;100.00
58385;BME280;44185;47.844;8.966;2023-02-19T08:20:00;96951.78;;;7.98;100.00
58385;BME280;44185;47.844;8.966;2023-02-19T08:22:26;96951.66;;;7.99;100.00
58385;BME280;44185;47.844;8.966;2023-02-19T08:24:51;96956.06;;;7.99;100.00
58385;BME280;44185;47.844;8.966;2023-02-19T08:27:17;96956.94;;;7.99;100.00
58385;BME280;44185;47.844;8.966;2023-02-19T08:29:42;96965.59;;;8.01;100.00
58385;BME280;44185;47.844;8.966;2023-02-19T08:32:08;96964.56;;;8.04;100.00
58385;BME280;44185;47.844;8.966;2023-02-19T08:34:35;96967.22;;;8.04;100.00
58385;BME280;44185;47.844;8.966;2023-02-19T08:37:00;96963.97;;;8.14;100.00
58385;BME280;44185;47.844;8.966;2023-02-19T08:39:26;96975.25;;;8.16;100.00
58385;BME280;44185;47.844;8.966;2023-02-19T08:41:51;96971.38;;;8.21;100.00
58385;BME280;44185;47.844;8.966;2023-02-19T08:44:17;96973.72;;;8.26;100.00
58385;BME280;44185;47.844;8.966;2023-02-19T08:46:42;96987.63;;;8.28;100.00
58385;BME280;44185;47.844;8.966;2023-02-19T08:49:08;96985.53;;;8.33;100.00
58385;BME280;44185;47.844;8.966;2023-02-19T08:51:35;96986.19;;;8.37;100.00
58385;BME280;44185;47.844;8.966;2023-02-19T08:54:01;96978.44;;;8.49;100.00
58385;BME280;44185;47.844;8.966;2023-02-19T08:56:27;96981.88;;;8.64;100.00
58385;BME280;44185;47.844;8.966;2023-02-19T08:58:52;96974.94;;;8.76;100.00
58385;BME280;44185;47.844;8.966;2023-02-19T09:01:18;96979.50;;;8.87;100.00
58385;BME280;44185;47.844;8.966;2023-02-19T09:03:43;96979.03;;;9.21;100.00
58385;BME280;44185;47.844;8.966;2023-02-19T09:06:13;96982.81;;;9.30;97.60
58385;BME280;44185;47.844;8.966;2023-02-19T09:08:40;96975.41;;;9.48;95.68
58385;BME280;44185;47.844;8.966;2023-02-19T09:11:05;96981.63;;;9.60;95.96
58385;BME280;44185;47.844;8.966;2023-02-19T09:13:31;96975.63;;;9.58;93.56
58385;BME280;44185;47.844;8.966;2023-02-19T09:15:56;96973.16;;;9.68;92.39
58385;BME280;44185;47.844;8.966;2023-02-19T09:18:22;96975.59;;;9.71;93.15
58385;BME280;44185;47.844;8.966;2023-02-19T09:20:47;96981.06;;;9.81;91.07
58385;BME280;44185;47.844;8.966;2023-02-19T09:23:13;96980.84;;;9.84;89.74
58385;BME280;44185;47.844;8.966;2023-02-19T09:25:39;96976.38;;;9.98;88.96
58385;BME280;44185;47.844;8.966;2023-02-19T09:28:05;96976.94;;;10.15;88.14
58385;BME280;44185;47.844;8.966;2023-02-19T09:30:30;96981.06;;;10.19;87.86
58385;BME280;44185;47.844;8.966;2023-02-19T09:32:56;96979.72;;;10.13;85.87
58385;BME280;44185;47.844;8.966;2023-02-19T09:35:21;96988.53;;;10.00;85.56
58385;BME280;44185;47.844;8.966;2023-02-19T09:37:47;96978.78;;;10.01;86.60
58385;BME280;44185;47.844;8.966;2023-02-19T09:40:13;96983.16;;;9.89;85.03
58385;BME280;44185;47.844;8.966;2023-02-19T09:42:41;96976.38;;;9.98;84.91
58385;BME280;44185;47.844;8.966;2023-02-19T09:45:14;96977.66;;;10.17;84.93
58385;BME280;44185;47.844;8.966;2023-02-19T09:47:43;96978.94;;;10.24;84.35
58385;BME280;44185;47.844;8.966;2023-02-19T09:50:11;96978.31;;;10.20;82.90
58385;BME280;44185;47.844;8.966;2023-02-19T09:52:42;96984.81;;;10.28;82.80
58385;BME280;44185;47.844;8.966;2023-02-19T09:55:13;96989.28;;;10.27;82.09
58385;BME280;44185;47.844;8.966;2023-02-19T09:57:42;96989.41;;;10.26;83.04
58385;BME280;44185;47.844;8.966;2023-02-19T10:00:19;96989.22;;;10.16;82.56
58385;BME280;44185;47.844;8.966;2023-02-19T10:02:45;96995.41;;;10.03;82.05
58385;BME280;44185;47.844;8.966;2023-02-19T10:05:12;96999.94;;;10.01;81.79
58385;BME280;44185;47.844;8.966;2023-02-19T10:07:40;96998.88;;;10.04;81.38
58385;BME280;44185;47.844;8.966;2023-02-19T10:10:21;96999.91;;;10.14;81.90
58385;BME280;44185;47.844;8.966;2023-02-19T10:12:52;96997.03;;;10.17;80.30
58385;BME280;44185;47.844;8.966;2023-02-19T10:15:23;97001.50;;;10.04;75.85
58385;BME280;44185;47.844;8.966;2023-02-19T10:17:49;97003.09;;;10.06;77.15
58385;BME280;44185;47.844;8.966;2023-02-19T10:20:17;97004.16;;;10.04;75.75
58385;BME280;44185;47.844;8.966;2023-02-19T10:22:43;97007.56;;;10.06;75.85
58385;BME280;44185;47.844;8.966;2023-02-19T10:25:13;97008.69;;;10.15;75.65
58385;BME280;44185;47.844;8.966;2023-02-19T10:27:39;97008.69;;;10.15;75.73
58385;BME280;44185;47.844;8.966;2023-02-19T10:30:19;97013.66;;;10.06;76.50
58385;BME280;44185;47.844;8.966;2023-02-19T10:32:58;97007.56;;;10.30;75.91
58385;BME280;44185;47.844;8.966;2023-02-19T10:35:24;97013.97;;;10.77;75.25
58385;BME280;44185;47.844;8.966;2023-02-19T10:37:51;97013.44;;;10.47;74.27
58385;BME280;44185;47.844;8.966;2023-02-19T10:40:18;97015.19;;;10.84;73.98
58385;BME280;44185;47.844;8.966;2023-02-19T10:42:45;97024.38;;;10.67;74.11
58385;BME280;44185;47.844;8.966;2023-02-19T10:45:17;97020.84;;;10.55;74.32
58385;BME280;44185;47.844;8.966;2023-02-19T10:47:45;97026.81;;;10.32;74.52
58385;BME280;44185;47.844;8.966;2023-02-19T10:50:21;97021.09;;;10.39;76.33
58385;BME280;44185;47.844;8.966;2023-02-19T10:52:51;97028.06;;;10.53;75.17
58385;BME280;44185;47.844;8.966;2023-02-19T10:55:28;97024.88;;;10.48;75.01
58385;BME280;44185;47.844;8.966;2023-02-19T10:57:54;97022.66;;;10.41;74.27
58385;BME280;44185;47.844;8.966;2023-02-19T11:00:23;97033.25;;;10.41;75.59
58385;BME280;44185;47.844;8.966;2023-02-19T11:02:49;97031.06;;;10.35;74.85
58385;BME280;44185;47.844;8.966;2023-02-19T11:05:17;97029.28;;;10.22;74.90
58385;BME280;44185;47.844;8.966;2023-02-19T11:07:44;97028.16;;;10.14;75.56
58385;BME280;44185;47.844;8.966;2023-02-19T11:10:20;97024.47;;;10.16;75.63
58385;BME280;44185;47.844;8.966;2023-02-19T11:12:46;97032.66;;;10.24;74.83
58385;BME280;44185;47.844;8.966;2023-02-19T11:15:19;97033.94;;;10.32;75.13
58385;BME280;44185;47.844;8.966;2023-02-19T11:17:53;97025.88;;;10.33;74.03
58385;BME280;44185;47.844;8.966;2023-02-19T11:20:19;97026.38;;;10.39;74.67
58385;BME280;44185;47.844;8.966;2023-02-19T11:22:44;97031.59;;;10.40;74.36
58385;BME280;44185;47.844;8.966;2023-02-19T11:25:18;97030.72;;;10.40;73.80
58385;BME280;44185;47.844;8.966;2023-02-19T11:27:53;97032.88;;;10.34;73.50
58385;BME280;44185;47.844;8.966;2023-02-19T11:30:35;97021.47;;;10.59;74.36
58385;BME280;44185;47.844;8.966;2023-02-19T11:33:25;97011.00;;;10.57;72.18
58385;BME280;44185;47.844;8.966;2023-02-19T11:35:54;97008.78;;;10.51;72.33
58385;BME280;44185;47.844;8.966;2023-02-19T11:38:23;97010.06;;;10.45;73.08
58385;BME280;44185;47.844;8.966;2023-02-19T11:40:51;96997.25;;;10.52;74.81
58385;BME280;44185;47.844;8.966;2023-02-19T11:43:32;96994.19;;;10.45;73.88
58385;BME280;44185;47.844;8.966;2023-02-19T11:46:07;96991.91;;;10.40;73.41
58385;BME280;44185;47.844;8.966;2023-02-19T11:48:58;96984.16;;;10.37;74.75
58385;BME280;44185;47.844;8.966;2023-02-19T11:51:41;96987.59;;;10.26;73.92
58385;BME280;44185;47.844;8.966;2023-02-19T11:54:19;96996.09;;;10.18;71.80
58385;BME280;44185;47.844;8.966;2023-02-19T11:56:50;96988.16;;;10.18;72.82
58385;BME280;44185;47.844;8.966;2023-02-19T11:59:24;96992.75;;;10.28;72.60
58385;BME280;44185;47.844;8.966;2023-02-19T12:02:05;96987.09;;;10.21;71.71
58385;BME280;44185;47.844;8.966;2023-02-19T12:05:02;96982.53;;;10.23;71.08
58385;BME280;44185;47.844;8.966;2023-02-19T12:08:12;96983.66;;;10.32;71.46
58385;BME280;44185;47.844;8.966;2023-02-19T12:10:54;96981.41;;;10.39;69.96
58385;BME280;44185;47.844;8.966;2023-02-19T12:13:28;96992.84;;;10.39;69.27
58385;BME280;44185;47.844;8.966;2023-02-19T12:16:09;96994.31;;;10.19;68.69
58385;BME280;44185;47.844;8.966;2023-02-19T12:19:24;96991.31;;;10.23;70.04
58385;BME280;44185;47.844;8.966;2023-02-19T12:22:09;96991.31;;;10.23;69.42
58385;BME280;44185;47.844;8.966;2023-02-19T12:25:04;97001.44;;;10.30;68.83
58385;BME280;44185;47.844;8.966;2023-02-19T12:27:48;96989.97;;;10.42;68.93
58385;BME280;44185;47.844;8.966;2023-02-19T12:30:27;96995.56;;;10.51;67.74
58385;BME280;44185;47.844;8.966;2023-02-19T12:35:57;96986.25;;;10.45;68.44
58385;BME280;44185;47.844;8.966;2023-02-19T12:38:29;96985.81;;;10.51;67.43
58385;BME280;44185;47.844;8.966;2023-02-19T12:41:04;96989.09;;;10.55;67.90
58385;BME280;44185;47.844;8.966;2023-02-19T12:43:33;96995.63;;;10.49;67.81
58385;BME280;44185;47.844;8.966;2023-02-19T12:46:02;97003.50;;;10.51;67.80
58385;BME280;44185;47.844;8.966;2023-02-19T12:48:34;97002.69;;;10.37;67.49
58385;BME280;44185;47.844;8.966;2023-02-19T12:51:04;97005.09;;;10.53;68.79
58385;BME280;44185;47.844;8.966;2023-02-19T12:53:40;97004.84;;;10.56;67.30
58385;BME280;44185;47.844;8.966;2023-02-19T12:56:13;97014.81;;;10.53;68.18
58385;BME280;44185;47.844;8.966;2023-02-19T12:58:43;97006.44;;;10.46;67.57
58385;BME280;44185;47.844;8.966;2023-02-19T13:01:13;97000.75;;;10.88;66.80
58385;BME280;44185;47.844;8.966;2023-02-19T13:03:44;96996.28;;;11.25;66.45
58385;BME280;44185;47.844;8.966;2023-02-19T13:06:23;96993.19;;;11.43;66.03
58385;BME280;44185;47.844;8.966;2023-02-19T13:08:55;97000.63;;;11.26;64.45
58385;BME280;44185;47.844;8.966;2023-02-19T13:11:26;97013.88;;;11.26;66.09
58385;BME280;44185;47.844;8.966;2023-02-19T13:13:56;97018.19;;;11.16;65.30
58385;BME280;44185;47.844;8.966;2023-02-19T13:16:24;97007.03;;;10.87;63.95